OFI weather

Ouango Fitini Airport
Ouango Fitini, Zanzan, Côte d'Ivoire

Public forecast

Using degrees Celsius for public forecast. Weather courtesy of forecast.io.

Closest aviation weather report (METAR) to Ouango Fitini Airport

Report is more than 6 hours old.

Closest report is Gaoua Airport, 70.5 nm (130.5 km) NE. Retrieved 2009/09/21 17:00 UTC (10 years ago):

DFOG 211700Z 18004KT 9999 FEW020 FEW040CB NW NE BKN260 30/23

Closest aviation forecast (TAF) to Ouango Fitini Airport

Closest forecast is Bobo Dioulasso Airport, 95.1 nm (176.2 km) N. Retrieved 2019/10/13 18:33 UTC (5 hours ago):

TAF DFOO 131700Z 1318/1418 18008KT 9999 FEW020 TEMPO 1319/1324 4000 TSRA SCT020 FEW033CB